Time;durP1;ratioP1;P1;durP2;ratioP2;P2;SDS_P1;SDS_P2;PMS_P1;PMS_P2;Temp;Humidity;BMP_temperature;BMP_pressure;BME280_temperature;BME280_humidity;BME280_pressure;Samples;Min_cycle;Max_cycle;Signal;HPM_P1;HPM_P2
2022/08/26 00:00:48;;;;;;;3.83;3.53;;;;;;;25.10;64.39;97216.38;5053465;28;20239;-24
2022/08/26 00:03:15;;;;;;;4.17;3.80;;;;;;;25.10;64.22;97208.66;5057006;28;20714;-23
2022/08/26 00:05:42;;;;;;;4.30;3.90;;;;;;;25.09;64.43;97217.22;5057603;28;20255;-24
2022/08/26 00:08:09;;;;;;;4.57;4.17;;;;;;;25.06;64.45;97204.34;5065387;28;20408;-22
2022/08/26 00:10:39;;;;;;;4.07;3.77;;;;;;;25.11;64.25;97215.50;5053745;28;20208;-23
2022/08/26 00:13:06;;;;;;;4.10;3.80;;;;;;;25.11;64.28;97204.38;5058021;28;20288;-23
2022/08/26 00:15:34;;;;;;;4.10;3.80;;;;;;;25.12;64.26;97218.94;5056667;28;20212;-23
2022/08/26 00:18:00;;;;;;;3.90;3.60;;;;;;;25.11;64.24;97210.38;5058877;28;20259;-24
2022/08/26 00:20:29;;;;;;;4.33;4.00;;;;;;;25.11;64.37;97209.53;5061921;28;20236;-23
2022/08/26 00:22:56;;;;;;;4.20;3.90;;;;;;;25.12;64.36;97206.09;5062792;28;20224;-22
2022/08/26 00:25:23;;;;;;;3.73;3.43;;;;;;;25.13;64.53;97204.41;5051553;28;20246;-23
2022/08/26 00:27:50;;;;;;;3.97;3.67;;;;;;;25.12;64.05;97211.25;5054544;28;20785;-23
2022/08/26 00:30:22;;;;;;;4.57;4.17;;;;;;;25.12;64.48;97216.38;5062068;28;20643;-22
2022/08/26 00:32:51;;;;;;;4.00;3.70;;;;;;;25.13;64.56;97217.25;5059096;28;20207;-24
2022/08/26 00:35:19;;;;;;;3.87;3.57;;;;;;;25.13;64.18;97218.09;5057349;28;20200;-24
2022/08/26 00:37:45;;;;;;;4.00;3.70;;;;;;;25.13;64.11;97215.53;5059339;28;20699;-23
2022/08/26 00:40:15;;;;;;;4.03;3.73;;;;;;;25.13;64.19;97212.13;5056572;28;20200;-22
2022/08/26 00:42:43;;;;;;;4.20;3.83;;;;;;;25.13;64.22;97211.25;5060314;28;20284;-23
2022/08/26 00:45:12;;;;;;;4.07;3.77;;;;;;;25.13;64.43;97210.38;5067740;28;20253;-23
2022/08/26 00:47:43;;;;;;;3.67;3.37;;;;;;;25.09;64.07;97208.63;5067444;28;20255;-23
2022/08/26 00:50:15;;;;;;;3.97;3.67;;;;;;;25.13;64.58;97216.41;5024103;28;20299;-23
2022/08/26 00:52:42;;;;;;;3.73;3.43;;;;;;;25.08;64.55;97205.19;5063082;28;20207;-23
2022/08/26 00:55:16;;;;;;;3.90;3.60;;;;;;;24.97;64.24;97185.38;5033086;28;20269;-26
2022/08/26 00:57:47;;;;;;;4.07;3.67;;;;;;;25.14;64.38;97217.28;5040451;28;20228;-21
2022/08/26 01:00:20;;;;;;;3.90;3.60;;;;;;;25.13;64.41;97213.81;5040728;28;20230;-23
2022/08/26 01:02:47;;;;;;;4.30;3.90;;;;;;;24.98;64.03;97185.38;5057365;28;20211;-23
2022/08/26 01:05:14;;;;;;;4.20;3.90;;;;;;;25.09;64.21;97206.06;5059715;28;20207;-22
2022/08/26 01:07:41;;;;;;;4.00;3.70;;;;;;;25.14;64.19;97218.09;5040226;28;20228;-23
2022/08/26 01:10:15;;;;;;;3.83;3.53;;;;;;;24.97;64.23;97191.38;5066612;28;20866;-23
2022/08/26 01:12:46;;;;;;;3.87;3.57;;;;;;;25.14;64.45;97215.53;5025202;28;20736;-22
2022/08/26 01:15:18;;;;;;;4.10;3.80;;;;;;;25.13;64.35;97214.69;5038133;28;20291;-23
2022/08/26 01:17:44;;;;;;;3.77;3.47;;;;;;;24.85;64.30;97162.97;5033795;28;20231;-23
2022/08/26 01:20:21;;;;;;;4.10;3.70;;;;;;;25.14;63.99;97209.56;5035796;28;20248;-22
2022/08/26 01:22:59;;;;;;;5.17;4.07;;;;;;;25.15;64.01;97213.84;5036636;28;20258;-23
2022/08/26 01:25:30;;;;;;;3.90;3.50;;;;;;;25.14;64.57;97210.41;5053386;28;20210;-23
2022/08/26 01:27:59;;;;;;;3.80;3.50;;;;;;;24.96;64.48;97181.91;5039065;28;20241;-22
2022/08/26 01:30:26;;;;;;;3.90;3.60;;;;;;;25.14;64.59;97212.97;5028592;28;20201;-23
2022/08/26 01:32:55;;;;;;;4.00;3.60;;;;;;;25.11;64.19;97206.97;5031488;28;20291;-23
2022/08/26 01:35:21;;;;;;;3.93;3.63;;;;;;;25.15;64.01;97216.41;5039108;28;20291;-22
2022/08/26 01:37:48;;;;;;;3.63;3.33;;;;;;;25.06;64.40;97194.06;5053305;28;20319;-23
2022/08/26 01:40:20;;;;;;;3.97;3.67;;;;;;;25.15;64.18;97211.28;5025812;28;20286;-23
2022/08/26 01:42:48;;;;;;;4.10;3.80;;;;;;;25.15;64.33;97203.56;5032392;28;20235;-23
2022/08/26 01:45:25;;;;;;;4.10;3.70;;;;;;;24.90;64.31;97166.44;5034688;28;20200;-23
2022/08/26 01:47:52;;;;;;;4.13;3.73;;;;;;;25.14;64.09;97204.41;5037585;28;20219;-23
2022/08/26 01:50:25;;;;;;;4.00;3.70;;;;;;;25.16;64.47;97209.56;5061307;28;20600;-24
2022/08/26 01:52:56;;;;;;;3.87;3.57;;;;;;;25.14;64.56;97205.25;5039205;28;20196;-23
2022/08/26 01:55:23;;;;;;;3.47;3.27;;;;;;;25.16;64.37;97214.72;5056458;28;20323;-24
2022/08/26 01:57:59;;;;;;;3.90;3.60;;;;;;;25.16;64.53;97204.44;5039852;28;20709;-23
2022/08/26 02:00:26;;;;;;;3.83;3.53;;;;;;;25.05;64.44;97188.88;5038461;28;20689;-23
2022/08/26 02:03:15;;;;;;;3.50;3.20;;;;;;;25.10;64.31;97195.78;5040556;28;20205;-23
2022/08/26 02:05:53;;;;;;;3.50;3.30;;;;;;;25.16;64.42;97210.41;5038184;28;20215;-23
2022/08/26 02:08:24;;;;;;;4.00;3.70;;;;;;;25.16;64.06;97214.72;5057467;28;20273;-23
2022/08/26 02:10:51;;;;;;;3.57;3.27;;;;;;;25.14;64.01;97215.53;5059423;28;20693;-24
2022/08/26 02:13:20;;;;;;;4.00;3.70;;;;;;;25.14;64.27;97212.97;5056212;28;20722;-23
2022/08/26 02:15:48;;;;;;;4.57;3.67;;;;;;;25.14;64.16;97210.41;5049282;28;20208;-23
2022/08/26 02:18:15;;;;;;;4.00;3.53;;;;;;;24.96;64.27;97181.09;5033911;28;20667;-23
2022/08/26 02:20:42;;;;;;;3.80;3.50;;;;;;;25.14;63.90;97214.69;5024109;28;20215;-23
2022/08/26 02:23:09;;;;;;;4.20;3.90;;;;;;;25.10;64.66;97208.66;5052712;28;20247;-23
2022/08/26 02:25:50;;;;;;;3.53;3.23;;;;;;;25.08;64.30;97197.47;5060689;28;20250;-24
2022/08/26 02:28:17;;;;;;;3.70;3.40;;;;;;;25.13;64.47;97213.81;5044766;28;20231;-23
2022/08/26 02:30:45;;;;;;;3.97;3.67;;;;;;;23.88;64.57;96999.97;5059278;28;20215;-23
2022/08/26 02:33:12;;;;;;;3.33;3.13;;;;;;;24.92;64.42;97171.59;5029064;28;20200;-23
2022/08/26 02:35:39;;;;;;;4.10;3.77;;;;;;;25.14;64.49;97214.69;5062175;28;20639;-24
2022/08/26 02:38:06;;;;;;;3.83;3.53;;;;;;;25.13;64.71;97213.81;5036119;28;20567;-23
2022/08/26 02:40:39;;;;;;;3.47;3.17;;;;;;;25.14;64.71;97217.28;5056495;28;20300;-23
2022/08/26 02:43:07;;;;;;;4.23;3.83;;;;;;;25.13;64.25;97210.38;5053310;28;20207;-23
2022/08/26 02:45:34;;;;;;;3.67;3.37;;;;;;;25.05;64.40;97202.59;5063310;28;20686;-24
2022/08/26 02:48:08;;;;;;;3.90;3.60;;;;;;;25.03;64.81;97203.44;5060825;28;20225;-22
2022/08/26 02:50:35;;;;;;;3.60;3.30;;;;;;;25.06;64.65;97208.59;5032660;28;20222;-23
2022/08/26 02:53:02;;;;;;;3.60;3.30;;;;;;;25.13;64.81;97219.81;5059447;28;20825;-23
2022/08/26 02:55:29;;;;;;;3.80;3.50;;;;;;;25.13;64.27;97209.53;5053541;28;20254;-22
2022/08/26 02:57:55;;;;;;;3.80;3.43;;;;;;;25.13;64.45;97209.53;5053587;28;20757;-23
2022/08/26 03:00:22;;;;;;;3.60;3.30;;;;;;;25.13;64.60;97210.38;5062186;28;20200;-23
2022/08/26 03:02:49;;;;;;;3.80;3.50;;;;;;;25.06;64.48;97196.63;5060534;28;20516;-22
2022/08/26 03:05:18;;;;;;;3.70;3.40;;;;;;;25.13;64.48;97212.13;5061831;28;20308;-23
2022/08/26 03:07:45;;;;;;;4.17;3.83;;;;;;;25.12;64.75;97229.25;5054592;28;20225;-22
2022/08/26 03:10:12;;;;;;;3.80;3.50;;;;;;;25.13;64.69;97206.97;5056863;28;20293;-23
2022/08/26 03:12:40;;;;;;;3.53;3.33;;;;;;;25.13;64.45;97204.41;5061885;28;20634;-23
2022/08/26 03:15:07;;;;;;;3.77;3.47;;;;;;;25.00;64.85;97187.97;5064591;28;20228;-23
2022/08/26 03:17:42;;;;;;;3.60;3.33;;;;;;;25.11;64.45;97192.38;5069364;28;20408;-23
2022/08/26 03:20:09;;;;;;;3.53;3.27;;;;;;;25.08;64.47;97194.06;5056091;28;20311;-22
2022/08/26 03:22:39;;;;;;;3.37;3.07;;;;;;;25.13;64.47;97191.53;5069898;28;20212;-23
2022/08/26 03:25:07;;;;;;;3.50;3.20;;;;;;;25.12;64.54;97195.81;5049622;28;20217;-22
2022/08/26 03:27:34;;;;;;;3.80;3.50;;;;;;;25.12;65.22;97193.22;5084269;22;20243;-31
2022/08/26 03:32:46;;;;;;;3.53;3.33;;;;;;;25.13;64.56;97199.25;5080634;28;20234;-31
2022/08/26 03:35:12;;;;;;;3.50;3.30;;;;;;;25.11;64.88;97194.94;5080713;28;20282;-32
2022/08/26 03:37:39;;;;;;;3.63;3.33;;;;;;;25.11;64.72;97194.94;5069407;28;20303;-31
2022/08/26 03:40:08;;;;;;;3.47;3.17;;;;;;;25.12;64.92;97195.81;5058631;28;20291;-31
2022/08/26 03:42:40;;;;;;;4.17;3.83;;;;;;;25.11;64.82;97194.94;5054673;28;20205;-31
2022/08/26 03:45:10;;;;;;;3.40;3.20;;;;;;;25.11;64.81;97201.81;5060934;28;20222;-31
2022/08/26 03:47:38;;;;;;;3.57;3.27;;;;;;;25.11;64.43;97202.66;5058453;28;20335;-31
2022/08/26 03:50:06;;;;;;;3.73;3.43;;;;;;;25.11;64.48;97199.25;5052548;28;20232;-31
2022/08/26 03:52:32;;;;;;;3.67;3.37;;;;;;;25.10;64.54;97190.66;5059171;28;20304;-31
2022/08/26 03:54:59;;;;;;;3.47;3.20;;;;;;;25.11;64.61;97194.09;5055648;28;20226;-31
2022/08/26 03:57:26;;;;;;;3.60;3.30;;;;;;;25.11;64.81;97191.53;5052996;28;20276;-31
2022/08/26 03:59:53;;;;;;;3.30;3.10;;;;;;;25.11;64.62;97197.50;5070540;28;20200;-32
2022/08/26 04:02:19;;;;;;;3.27;3.00;;;;;;;25.11;64.74;97192.38;5066225;28;20284;-32
2022/08/26 04:04:46;;;;;;;3.50;3.20;;;;;;;25.10;64.55;97193.22;5062807;28;20251;-31
2022/08/26 04:07:13;;;;;;;3.60;3.30;;;;;;;25.10;64.98;97190.66;5066947;28;20311;-31
2022/08/26 04:09:40;;;;;;;3.77;3.47;;;;;;;25.11;64.75;97192.38;5059962;28;20240;-32
2022/08/26 04:12:07;;;;;;;3.80;3.50;;;;;;;25.11;65.00;97191.53;5059589;28;20714;-31
2022/08/26 04:14:36;;;;;;;3.40;3.20;;;;;;;25.11;64.69;97196.66;5064710;28;20193;-31
2022/08/26 04:17:04;;;;;;;3.30;3.10;;;;;;;25.13;64.61;97195.81;5054124;28;20225;-31
2022/08/26 04:19:31;;;;;;;3.27;3.07;;;;;;;25.13;64.46;97194.94;5064017;28;20200;-31
2022/08/26 04:21:58;;;;;;;3.43;3.13;;;;;;;25.13;64.79;97197.53;5062822;28;20232;-32
2022/08/26 04:24:26;;;;;;;3.33;3.13;;;;;;;25.13;64.62;97203.53;5055925;28;20216;-31
2022/08/26 04:26:55;;;;;;;3.47;3.17;;;;;;;25.13;64.86;97203.53;5066366;28;20212;-31
2022/08/26 04:29:23;;;;;;;3.03;2.83;;;;;;;25.14;64.96;97199.28;5052578;28;20656;-32
2022/08/26 04:31:50;;;;;;;3.17;2.97;;;;;;;25.11;64.82;97188.94;5059287;28;20232;-31
2022/08/26 04:34:25;;;;;;;2.97;2.77;;;;;;;25.13;64.84;97194.09;5065808;28;20192;-32
2022/08/26 04:36:54;;;;;;;3.53;3.23;;;;;;;25.13;64.78;97197.53;5056495;28;20296;-31
2022/08/26 04:39:21;;;;;;;4.17;3.57;;;;;;;25.14;64.79;97191.56;5059079;28;20519;-32
2022/08/26 04:41:48;;;;;;;3.30;3.10;;;;;;;25.13;64.46;97195.81;5061802;28;20208;-31
2022/08/26 04:44:16;;;;;;;3.60;3.30;;;;;;;25.13;64.77;97195.81;5066606;28;20216;-31
2022/08/26 04:46:42;;;;;;;3.27;3.07;;;;;;;25.11;64.84;97204.38;5070413;28;20204;-31
2022/08/26 04:49:09;;;;;;;3.73;3.43;;;;;;;25.14;64.43;97199.28;5053724;28;20205;-32
2022/08/26 04:51:36;;;;;;;3.53;3.30;;;;;;;25.15;64.89;97198.41;5061491;28;20255;-31
2022/08/26 04:54:05;;;;;;;3.50;3.20;;;;;;;25.13;64.95;97201.81;5052161;28;20193;-32
2022/08/26 04:56:34;;;;;;;3.47;3.17;;;;;;;25.12;64.51;97203.53;5052996;28;20706;-31
2022/08/26 04:59:02;;;;;;;3.37;3.17;;;;;;;25.12;64.88;97203.53;5049847;28;20205;-31
2022/08/26 05:01:33;;;;;;;3.20;3.00;;;;;;;25.02;64.88;97187.13;5056905;28;20204;-32
2022/08/26 05:04:05;;;;;;;3.07;2.87;;;;;;;25.10;65.42;97205.22;5067483;28;20233;-32
2022/08/26 05:06:34;;;;;;;3.20;3.00;;;;;;;25.13;64.79;97204.41;5067470;28;20236;-31
2022/08/26 05:09:02;;;;;;;3.03;2.83;;;;;;;25.13;65.06;97206.97;5058015;28;20637;-31
2022/08/26 05:11:29;;;;;;;3.20;3.00;;;;;;;25.13;64.87;97212.13;5066811;28;20239;-31
2022/08/26 05:13:56;;;;;;;3.30;3.10;;;;;;;25.12;64.70;97206.09;5060298;28;20243;-31
2022/08/26 05:16:29;;;;;;;3.17;2.97;;;;;;;25.10;64.75;97211.22;5064662;28;20204;-32
2022/08/26 05:18:56;;;;;;;3.50;3.20;;;;;;;25.13;64.58;97224.13;5068177;28;20259;-31
2022/08/26 05:21:25;;;;;;;3.53;3.30;;;;;;;25.13;64.78;97216.41;5058175;28;20274;-31
2022/08/26 05:23:53;;;;;;;3.20;3.00;;;;;;;25.13;64.53;97214.69;5056429;28;20204;-32
2022/08/26 05:26:23;;;;;;;3.40;3.20;;;;;;;25.13;64.81;97209.53;5064619;28;20284;-32
2022/08/26 05:28:51;;;;;;;3.30;3.10;;;;;;;25.16;64.36;97212.16;5054440;28;20224;-32
2022/08/26 05:31:22;;;;;;;3.73;3.43;;;;;;;25.17;64.96;97213.84;5065148;28;20197;-32
2022/08/26 05:33:49;;;;;;;3.50;3.20;;;;;;;25.09;64.39;97201.78;5066334;28;20302;-31
2022/08/26 05:36:19;;;;;;;3.67;3.37;;;;;;;25.16;64.37;97207.84;5055123;28;20196;-31
2022/08/26 05:38:47;;;;;;;3.33;3.13;;;;;;;25.17;64.62;97208.72;5055004;28;20252;-31
2022/08/26 05:41:15;;;;;;;3.10;2.90;;;;;;;25.17;64.59;97213.00;5057952;28;20209;-31
2022/08/26 05:43:42;;;;;;;3.60;3.30;;;;;;;25.18;64.26;97211.31;5053486;28;20209;-31
2022/08/26 05:46:08;;;;;;;2.97;2.77;;;;;;;25.16;64.64;97207.84;5058855;28;20259;-31
2022/08/26 05:48:35;;;;;;;3.20;3.00;;;;;;;25.17;64.61;97213.84;5054675;28;20260;-32
2022/08/26 05:51:07;;;;;;;3.37;3.17;;;;;;;25.18;64.39;97206.16;5061518;28;20283;-31
2022/08/26 05:53:34;;;;;;;3.43;3.23;;;;;;;25.14;64.69;97207.81;5054506;28;20291;-31
2022/08/26 05:56:01;;;;;;;3.27;3.07;;;;;;;25.17;64.36;97208.72;5055349;28;20201;-31
2022/08/26 05:58:28;;;;;;;3.17;2.97;;;;;;;25.17;64.67;97210.44;5065915;28;20255;-32
2022/08/26 06:00:59;;;;;;;3.33;3.03;;;;;;;25.19;64.37;97207.03;5056742;28;20243;-31
2022/08/26 06:03:26;;;;;;;3.30;3.10;;;;;;;25.17;64.72;97205.28;5065309;28;20307;-31
2022/08/26 06:05:53;;;;;;;3.63;3.33;;;;;;;25.19;64.53;97214.75;5058054;28;20667;-31
2022/08/26 06:08:20;;;;;;;3.30;3.10;;;;;;;25.19;64.54;97212.19;5064147;28;20313;-31
2022/08/26 06:10:53;;;;;;;3.47;3.17;;;;;;;25.19;64.59;97217.31;5064902;28;20201;-31
2022/08/26 06:13:22;;;;;;;3.47;3.17;;;;;;;25.16;64.57;97212.97;5060477;28;20741;-31
2022/08/26 06:15:49;;;;;;;3.50;3.20;;;;;;;25.19;64.46;97210.44;5055988;28;20300;-31
2022/08/26 06:18:18;;;;;;;3.10;2.90;;;;;;;25.19;64.37;97219.88;5058080;28;20316;-31
2022/08/26 06:20:45;;;;;;;3.30;3.10;;;;;;;25.20;64.35;97216.47;5064736;28;20267;-31
2022/08/26 06:26:08;;;;;;;3.57;3.27;;;;;;;24.53;64.32;97112.03;5060703;28;20303;-31
2022/08/26 06:28:36;;;;;;;3.27;3.07;;;;;;;25.19;64.59;97219.88;5056409;28;20228;-31
2022/08/26 06:31:03;;;;;;;3.40;3.13;;;;;;;25.20;64.79;97221.59;5060049;28;20350;-31
2022/08/26 06:33:30;;;;;;;3.43;3.13;;;;;;;25.20;64.75;97224.19;5054510;28;20207;-31
2022/08/26 06:35:57;;;;;;;3.50;3.20;;;;;;;25.19;64.79;97222.47;5070442;28;20265;-31
2022/08/26 06:38:24;;;;;;;3.30;3.10;;;;;;;25.16;64.72;97228.41;5055290;28;20248;-31
2022/08/26 06:40:52;;;;;;;3.33;3.13;;;;;;;25.18;64.29;97224.16;5059955;28;20676;-31
2022/08/26 06:43:21;;;;;;;3.10;2.90;;;;;;;24.96;64.44;97194.78;5061910;28;20206;-31
2022/08/26 06:45:48;;;;;;;3.33;3.13;;;;;;;25.11;64.70;97217.25;5072882;28;20224;-31
2022/08/26 06:48:17;;;;;;;3.20;3.00;;;;;;;25.18;64.61;97229.31;5062443;28;20264;-31
2022/08/26 06:50:44;;;;;;;3.73;3.43;;;;;;;25.19;64.43;97236.16;5057518;28;20208;-31
2022/08/26 06:53:11;;;;;;;3.63;3.33;;;;;;;25.19;64.76;97231.03;5061353;28;20772;-31
2022/08/26 06:55:42;;;;;;;3.47;3.20;;;;;;;25.20;64.53;97239.59;5057197;28;20236;-31
2022/08/26 06:58:10;;;;;;;3.37;3.17;;;;;;;25.20;64.41;97231.88;5063333;28;20216;-31
2022/08/26 07:00:37;;;;;;;3.33;3.07;;;;;;;25.19;64.29;97231.03;5065343;28;20268;-31
2022/08/26 07:03:07;;;;;;;3.23;3.03;;;;;;;25.19;64.69;97236.16;5061668;28;20232;-31
2022/08/26 07:05:34;;;;;;;3.50;3.30;;;;;;;25.19;64.26;97235.31;5059477;28;20221;-31
2022/08/26 07:08:01;;;;;;;3.60;3.30;;;;;;;25.19;64.30;97235.31;5057787;28;20257;-31
2022/08/26 07:10:28;;;;;;;3.50;3.20;;;;;;;25.18;64.29;97239.59;5059314;28;20599;-31
2022/08/26 07:12:55;;;;;;;3.10;2.90;;;;;;;25.19;64.61;97235.31;5065909;28;20748;-31
2022/08/26 07:15:22;;;;;;;3.43;3.23;;;;;;;25.19;64.53;97237.91;5053032;28;20197;-32
2022/08/26 07:17:56;;;;;;;3.10;2.90;;;;;;;25.17;64.27;97233.56;5055101;28;20232;-32
2022/08/26 07:20:23;;;;;;;3.73;3.43;;;;;;;25.19;64.29;97241.31;5063359;28;20810;-31
2022/08/26 07:22:50;;;;;;;3.67;3.37;;;;;;;25.19;64.37;97236.16;5056867;28;20267;-31
2022/08/26 07:25:17;;;;;;;3.77;3.47;;;;;;;25.19;64.18;97240.47;5062948;28;20602;-32
2022/08/26 07:27:45;;;;;;;3.40;3.13;;;;;;;25.16;64.42;97232.72;5056379;28;20239;-31
2022/08/26 07:30:19;;;;;;;3.30;3.10;;;;;;;25.13;64.54;97225.81;5058841;28;20219;-31
2022/08/26 07:32:46;;;;;;;3.00;2.80;;;;;;;25.19;64.57;97228.44;5053569;28;20244;-31
2022/08/26 07:35:13;;;;;;;3.53;3.20;;;;;;;25.19;64.41;97228.44;5055963;28;20201;-31
2022/08/26 07:37:41;;;;;;;3.43;3.23;;;;;;;25.13;64.30;97224.13;5071637;28;20282;-31
2022/08/26 07:40:08;;;;;;;3.07;2.87;;;;;;;25.19;64.70;97235.31;5058339;28;20663;-31
2022/08/26 07:42:34;;;;;;;3.40;3.10;;;;;;;25.19;64.60;97230.19;5055062;28;20667;-31
2022/08/26 07:45:01;;;;;;;3.23;3.03;;;;;;;25.19;64.98;97236.16;5052711;28;20240;-31
2022/08/26 07:47:28;;;;;;;3.10;2.90;;;;;;;25.19;64.73;97232.75;5060253;28;20237;-31
2022/08/26 07:49:54;;;;;;;3.10;2.90;;;;;;;25.20;64.59;97231.88;5059897;28;20295;-31
2022/08/26 07:52:21;;;;;;;3.10;2.90;;;;;;;25.17;64.47;97223.28;5059848;28;20201;-31
2022/08/26 07:54:53;;;;;;;3.40;3.20;;;;;;;25.19;64.25;97235.31;5053334;28;20201;-31
2022/08/26 07:57:19;;;;;;;3.23;3.03;;;;;;;25.18;64.42;97234.44;5058024;28;20227;-31
2022/08/26 07:59:46;;;;;;;3.13;2.93;;;;;;;25.19;64.57;97227.59;5055166;28;20262;-31
2022/08/26 08:02:12;;;;;;;3.17;2.97;;;;;;;25.19;64.26;97231.03;5057808;28;20284;-31
2022/08/26 08:04:39;;;;;;;3.50;3.30;;;;;;;25.18;64.44;97234.44;5067104;28;20246;-31
2022/08/26 08:07:06;;;;;;;3.20;3.00;;;;;;;25.19;64.69;97223.31;5056845;28;20229;-31
2022/08/26 08:09:37;;;;;;;3.50;3.20;;;;;;;25.17;64.79;97230.16;5059190;28;20220;-31
2022/08/26 08:12:06;;;;;;;3.37;3.10;;;;;;;25.17;64.68;97224.16;5060140;28;20294;-31
2022/08/26 08:14:35;;;;;;;3.13;2.93;;;;;;;25.19;64.22;97228.44;5057497;28;20208;-32
2022/08/26 08:17:02;;;;;;;3.40;3.10;;;;;;;25.19;64.60;97225.88;5057213;28;20220;-31
2022/08/26 08:19:29;;;;;;;3.27;3.00;;;;;;;25.20;64.59;97221.59;5063319;28;20377;-31
2022/08/26 08:22:04;;;;;;;3.20;3.00;;;;;;;25.20;64.68;97219.03;5061768;28;20210;-32
2022/08/26 08:24:44;;;;;;;3.90;3.13;;;;;;;25.17;64.75;97219.88;5064629;28;20216;-31
2022/08/26 08:27:15;;;;;;;3.27;3.03;;;;;;;25.20;64.24;97216.47;5059269;28;20733;-31
2022/08/26 08:29:46;;;;;;;3.33;3.13;;;;;;;25.19;64.63;97213.00;5054915;28;20211;-31
2022/08/26 08:32:12;;;;;;;3.20;3.00;;;;;;;25.13;64.44;97199.25;5061963;28;20651;-31
2022/08/26 08:34:40;;;;;;;3.00;2.80;;;;;;;25.20;64.65;97214.75;5053817;28;20243;-32
2022/08/26 08:37:12;;;;;;;3.10;2.90;;;;;;;25.19;64.45;97220.72;5056507;28;20256;-31
2022/08/26 08:39:39;;;;;;;3.10;2.90;;;;;;;25.17;64.37;97211.28;5063896;28;20211;-31
2022/08/26 08:42:30;;;;;;;3.47;3.17;;;;;;;25.19;64.55;97220.72;5063078;28;20204;-31
2022/08/26 08:44:58;;;;;;;3.10;2.90;;;;;;;25.19;64.51;97218.16;5057671;28;20227;-31
2022/08/26 08:47:32;;;;;;;3.10;2.90;;;;;;;25.17;64.69;97207.00;5048171;28;20597;-31
2022/08/26 08:50:19;;;;;;;3.40;3.20;;;;;;;25.19;64.39;97237.91;5058054;28;20261;-32
2022/08/26 08:52:51;;;;;;;3.23;3.03;;;;;;;25.14;64.61;97201.84;5062145;28;20303;-31
2022/08/26 08:55:17;;;;;;;3.30;3.10;;;;;;;25.19;64.11;97202.72;5053332;28;20216;-31
2022/08/26 08:58:06;;;;;;;3.40;3.20;;;;;;;25.15;64.66;97200.97;5060586;28;20798;-31
2022/08/26 09:00:42;;;;;;;3.30;3.00;;;;;;;25.15;64.20;97208.69;5052460;28;20215;-31
2022/08/26 09:03:49;;;;;;;3.07;2.87;;;;;;;25.19;64.26;97205.28;5050859;28;20200;-31
2022/08/26 09:06:17;;;;;;;2.90;2.70;;;;;;;25.10;64.28;97184.63;5053084;28;20251;-31
2022/08/26 09:08:45;;;;;;;3.00;2.80;;;;;;;25.17;64.61;97203.56;5058952;28;20606;-31
2022/08/26 09:11:15;;;;;;;3.13;2.93;;;;;;;25.19;64.62;97202.72;5055691;28;20204;-32
2022/08/26 09:13:46;;;;;;;3.10;2.90;;;;;;;25.14;64.71;97192.41;5059960;28;20204;-31
2022/08/26 09:16:26;;;;;;;3.20;3.00;;;;;;;25.19;64.27;97201.88;5056710;28;20232;-32
2022/08/26 09:19:09;;;;;;;3.17;2.97;;;;;;;25.14;64.13;97191.56;5054315;28;20230;-32
2022/08/26 09:21:36;;;;;;;3.20;3.00;;;;;;;25.18;64.55;97193.28;5050972;28;20280;-31
2022/08/26 09:24:04;;;;;;;3.60;3.30;;;;;;;25.19;64.27;97199.31;5059058;28;20212;-32
2022/08/26 09:26:37;;;;;;;3.10;2.90;;;;;;;25.19;64.45;97183.88;5056150;28;20443;-32
2022/08/26 09:29:07;;;;;;;3.13;2.93;;;;;;;25.19;64.34;97199.31;5064084;28;20245;-32
2022/08/26 09:31:35;;;;;;;3.23;3.03;;;;;;;25.19;64.21;97201.88;5053099;28;20197;-30
2022/08/26 09:34:14;;;;;;;2.80;2.60;;;;;;;25.20;64.44;97201.03;5051758;28;20638;-31
2022/08/26 09:36:54;;;;;;;3.40;3.10;;;;;;;25.19;64.26;97189.88;5058632;28;20208;-31
2022/08/26 09:39:26;;;;;;;3.33;3.10;;;;;;;25.19;64.10;97195.00;5054973;28;20202;-31
2022/08/26 09:42:18;;;;;;;3.07;2.87;;;;;;;25.19;64.46;97187.28;5049501;28;20795;-31
2022/08/26 09:44:58;;;;;;;3.00;2.80;;;;;;;25.19;64.19;97187.28;5066354;28;20231;-31
2022/08/26 09:47:30;;;;;;;3.00;2.80;;;;;;;25.19;64.68;97189.88;5055139;28;20307;-31
2022/08/26 09:50:24;;;;;;;2.90;2.70;;;;;;;25.19;64.62;97189.88;5055482;28;20211;-31
2022/08/26 09:53:26;;;;;;;3.33;3.13;;;;;;;25.19;64.63;97187.28;5054846;28;20243;-31
2022/08/26 09:56:40;;;;;;;3.37;3.17;;;;;;;25.19;64.50;97169.28;5050703;28;20294;-31
2022/08/26 09:59:09;;;;;;;3.40;3.10;;;;;;;25.14;64.10;97161.53;4997187;28;20300;-30
2022/08/26 10:01:40;;;;;;;3.10;2.90;;;;;;;25.19;64.57;97159.00;5056272;28;20267;-30
2022/08/26 10:04:23;;;;;;;3.00;2.80;;;;;;;25.16;64.64;97153.00;5066960;28;20204;-31
2022/08/26 10:07:00;;;;;;;3.17;2.90;;;;;;;25.18;64.74;97157.28;5049972;28;20228;-31
2022/08/26 10:09:27;;;;;;;3.30;3.10;;;;;;;25.16;64.60;97148.69;5053998;28;20204;-30
2022/08/26 10:11:57;;;;;;;3.03;2.83;;;;;;;25.19;64.49;97145.31;5044936;28;20223;-31
2022/08/26 10:14:27;;;;;;;3.10;2.90;;;;;;;25.08;64.38;97120.34;5050871;28;20196;-31
2022/08/26 10:17:34;;;;;;;3.10;2.90;;;;;;;25.19;64.65;97137.59;5061870;28;20277;-31
2022/08/26 10:20:09;;;;;;;3.17;2.97;;;;;;;25.08;64.40;97109.22;5046573;28;20201;-30
2022/08/26 10:23:01;;;;;;;3.20;3.00;;;;;;;24.55;64.18;97015.28;5035252;28;20205;-30
2022/08/26 10:25:31;;;;;;;3.10;2.90;;;;;;;25.19;64.45;97117.00;5055782;28;20208;-30
2022/08/26 10:28:05;;;;;;;3.10;2.90;;;;;;;25.17;64.45;97108.41;5047610;28;20233;-31
2022/08/26 10:30:39;;;;;;;3.20;3.00;;;;;;;25.19;64.53;97119.59;5048557;28;20283;-30
2022/08/26 10:33:10;;;;;;;3.10;2.90;;;;;;;25.20;64.13;97121.28;5029944;28;20208;-31
2022/08/26 10:36:47;;;;;;;3.13;2.93;;;;;;;25.11;64.37;97107.50;5052329;28;20291;-31
2022/08/26 10:38:54;;;;;;;3.23;3.03;;;;;;;25.11;64.37;97111.81;5044245;28;20316;-31
2022/08/26 10:41:22;;;;;;;3.10;2.90;;;;;;;25.19;64.16;97124.72;5051678;28;20327;-31
2022/08/26 10:43:57;;;;;;;3.37;3.07;;;;;;;25.19;64.34;97125.56;5052026;28;20205;-31
2022/08/26 10:46:27;;;;;;;3.20;3.00;;;;;;;25.16;64.49;97117.81;5048218;28;20243;-30
2022/08/26 10:49:00;;;;;;;3.20;3.00;;;;;;;25.19;64.26;97122.16;5052264;28;20229;-31
2022/08/26 10:51:37;;;;;;;3.10;2.90;;;;;;;25.12;64.21;97110.94;5052060;28;20203;-30
2022/08/26 10:54:38;;;;;;;3.30;3.10;;;;;;;25.20;64.40;97121.28;5034766;28;20252;-31
2022/08/26 10:57:11;;;;;;;2.97;2.77;;;;;;;25.16;64.45;97104.13;5036808;28;20333;-31
2022/08/26 10:59:48;;;;;;;2.80;2.60;;;;;;;25.19;64.67;97105.00;5049036;28;20223;-31
2022/08/26 11:02:24;;;;;;;3.10;2.90;;;;;;;25.20;64.22;97103.28;5055529;28;20205;-31
2022/08/26 11:04:56;;;;;;;3.23;3.03;;;;;;;25.11;64.45;97093.81;5048160;28;20204;-31
2022/08/26 11:07:51;;;;;;;3.17;2.97;;;;;;;25.19;64.43;97110.13;5048895;28;20272;-31
2022/08/26 11:10:17;;;;;;;2.80;2.60;;;;;;;25.19;64.18;97123.00;5047254;28;20229;-30
2022/08/26 11:12:44;;;;;;;3.30;3.10;;;;;;;25.19;64.27;97133.28;5062032;28;20208;-31
2022/08/26 11:15:20;;;;;;;3.60;3.30;;;;;;;25.19;64.28;97133.28;5065132;28;20211;-31
2022/08/26 11:17:50;;;;;;;3.10;2.90;;;;;;;25.20;64.60;97121.28;5061892;28;20226;-31
2022/08/26 11:20:22;;;;;;;3.07;2.87;;;;;;;25.19;64.47;97117.84;5061045;28;20205;-30
2022/08/26 11:22:50;;;;;;;3.43;3.23;;;;;;;25.20;64.19;97111.00;5062631;28;20651;-31
2022/08/26 11:25:23;;;;;;;3.23;3.03;;;;;;;25.19;64.47;97105.00;5059973;28;20208;-31
2022/08/26 11:27:58;;;;;;;2.93;2.73;;;;;;;25.19;64.46;97105.00;5061253;28;20229;-30
2022/08/26 11:30:33;;;;;;;3.20;3.00;;;;;;;25.19;64.27;97105.00;5059089;28;20197;-31
2022/08/26 11:33:00;;;;;;;3.03;2.83;;;;;;;25.17;64.30;97100.69;5050330;28;20236;-31
2022/08/26 11:35:35;;;;;;;3.23;3.03;;;;;;;25.19;64.58;97102.41;5055347;28;20243;-31
2022/08/26 11:38:13;;;;;;;3.30;3.00;;;;;;;25.19;64.62;97099.00;5053741;28;20216;-31
2022/08/26 11:40:40;;;;;;;3.07;2.87;;;;;;;25.20;64.24;97093.00;5054628;28;20331;-30
2022/08/26 11:43:17;;;;;;;3.07;2.87;;;;;;;25.19;64.46;97096.44;5048278;28;20259;-30
2022/08/26 11:45:58;;;;;;;3.03;2.83;;;;;;;25.20;64.46;97096.44;5052904;28;20288;-30
2022/08/26 11:48:24;;;;;;;3.47;3.17;;;;;;;25.20;64.48;97091.31;5056294;28;20721;-31
2022/08/26 11:51:21;;;;;;;2.97;2.77;;;;;;;25.19;64.27;97084.41;5053598;28;20726;-30
2022/08/26 11:53:48;;;;;;;3.17;2.97;;;;;;;25.16;64.14;97086.13;5061283;28;20746;-31
2022/08/26 11:56:27;;;;;;;3.00;2.80;;;;;;;25.19;64.57;97088.72;5060952;28;20303;-31